sensor_id;sensor_type;location;lat;lon;timestamp;P1;durP1;ratioP1;P2;durP2;ratioP2
10343;SDS011;5217;43.960;10.954;2023-03-12T00:00:58;14.87;;;6.77;;
10343;SDS011;5217;43.960;10.954;2023-03-12T00:03:26;14.63;;;7.40;;
10343;SDS011;5217;43.960;10.954;2023-03-12T00:05:56;16.30;;;6.83;;
10343;SDS011;5217;43.960;10.954;2023-03-12T00:08:35;16.87;;;7.60;;
10343;SDS011;5217;43.960;10.954;2023-03-12T00:11:05;14.60;;;7.07;;
10343;SDS011;5217;43.960;10.954;2023-03-12T00:13:34;15.23;;;7.33;;
10343;SDS011;5217;43.960;10.954;2023-03-12T00:16:04;15.00;;;7.43;;
10343;SDS011;5217;43.960;10.954;2023-03-12T00:18:34;17.73;;;7.10;;
10343;SDS011;5217;43.960;10.954;2023-03-12T00:21:04;20.27;;;7.93;;
10343;SDS011;5217;43.960;10.954;2023-03-12T00:23:33;13.93;;;7.00;;
10343;SDS011;5217;43.960;10.954;2023-03-12T00:26:02;16.40;;;7.67;;
10343;SDS011;5217;43.960;10.954;2023-03-12T00:28:32;15.17;;;7.13;;
10343;SDS011;5217;43.960;10.954;2023-03-12T00:31:01;15.60;;;7.70;;
10343;SDS011;5217;43.960;10.954;2023-03-12T00:33:30;14.13;;;7.07;;
10343;SDS011;5217;43.960;10.954;2023-03-12T00:35:58;16.70;;;7.57;;
10343;SDS011;5217;43.960;10.954;2023-03-12T00:38:28;17.43;;;8.87;;
10343;SDS011;5217;43.960;10.954;2023-03-12T00:40:57;15.03;;;7.70;;
10343;SDS011;5217;43.960;10.954;2023-03-12T00:43:25;15.23;;;7.83;;
10343;SDS011;5217;43.960;10.954;2023-03-12T00:45:54;17.17;;;8.27;;
10343;SDS011;5217;43.960;10.954;2023-03-12T00:48:22;19.13;;;8.40;;
10343;SDS011;5217;43.960;10.954;2023-03-12T00:50:50;16.07;;;7.70;;
10343;SDS011;5217;43.960;10.954;2023-03-12T00:53:18;16.40;;;7.53;;
10343;SDS011;5217;43.960;10.954;2023-03-12T00:55:48;15.83;;;7.47;;
10343;SDS011;5217;43.960;10.954;2023-03-12T00:58:16;13.73;;;7.13;;
10343;SDS011;5217;43.960;10.954;2023-03-12T01:00:45;15.17;;;7.20;;
10343;SDS011;5217;43.960;10.954;2023-03-12T01:03:13;18.03;;;7.90;;
10343;SDS011;5217;43.960;10.954;2023-03-12T01:05:41;16.77;;;7.97;;
10343;SDS011;5217;43.960;10.954;2023-03-12T01:08:10;15.43;;;7.37;;
10343;SDS011;5217;43.960;10.954;2023-03-12T01:10:40;16.80;;;7.93;;
10343;SDS011;5217;43.960;10.954;2023-03-12T01:13:10;17.63;;;7.57;;
10343;SDS011;5217;43.960;10.954;2023-03-12T01:15:39;15.10;;;7.80;;
10343;SDS011;5217;43.960;10.954;2023-03-12T01:18:07;15.23;;;7.00;;
10343;SDS011;5217;43.960;10.954;2023-03-12T01:20:35;13.77;;;7.13;;
10343;SDS011;5217;43.960;10.954;2023-03-12T01:23:05;16.57;;;7.70;;
10343;SDS011;5217;43.960;10.954;2023-03-12T01:25:34;13.27;;;7.13;;
10343;SDS011;5217;43.960;10.954;2023-03-12T01:28:03;15.57;;;7.27;;
10343;SDS011;5217;43.960;10.954;2023-03-12T01:30:33;15.77;;;7.20;;
10343;SDS011;5217;43.960;10.954;2023-03-12T01:33:01;13.70;;;6.97;;
10343;SDS011;5217;43.960;10.954;2023-03-12T01:35:34;14.93;;;7.17;;
10343;SDS011;5217;43.960;10.954;2023-03-12T01:38:04;15.70;;;7.13;;
10343;SDS011;5217;43.960;10.954;2023-03-12T01:40:33;16.33;;;7.03;;
10343;SDS011;5217;43.960;10.954;2023-03-12T01:43:23;16.30;;;7.47;;
10343;SDS011;5217;43.960;10.954;2023-03-12T01:46:03;18.27;;;8.10;;
10343;SDS011;5217;43.960;10.954;2023-03-12T01:48:35;15.77;;;6.73;;
10343;SDS011;5217;43.960;10.954;2023-03-12T01:51:08;15.30;;;7.23;;
10343;SDS011;5217;43.960;10.954;2023-03-12T01:53:39;17.60;;;7.23;;
10343;SDS011;5217;43.960;10.954;2023-03-12T01:56:12;15.37;;;7.20;;
10343;SDS011;5217;43.960;10.954;2023-03-12T01:58:43;13.10;;;6.47;;
10343;SDS011;5217;43.960;10.954;2023-03-12T02:01:18;11.40;;;5.67;;
10343;SDS011;5217;43.960;10.954;2023-03-12T02:03:47;13.13;;;6.43;;
10343;SDS011;5217;43.960;10.954;2023-03-12T02:06:21;11.90;;;6.27;;
10343;SDS011;5217;43.960;10.954;2023-03-12T02:08:53;13.23;;;6.13;;
10343;SDS011;5217;43.960;10.954;2023-03-12T02:11:22;11.93;;;5.37;;
10343;SDS011;5217;43.960;10.954;2023-03-12T02:13:50;11.97;;;5.67;;
10343;SDS011;5217;43.960;10.954;2023-03-12T02:16:20;10.67;;;4.83;;
10343;SDS011;5217;43.960;10.954;2023-03-12T02:18:48;14.60;;;5.83;;
10343;SDS011;5217;43.960;10.954;2023-03-12T02:21:19;13.00;;;5.50;;
10343;SDS011;5217;43.960;10.954;2023-03-12T02:23:51;12.30;;;5.80;;
10343;SDS011;5217;43.960;10.954;2023-03-12T02:26:29;11.03;;;5.17;;
10343;SDS011;5217;43.960;10.954;2023-03-12T02:28:58;14.70;;;5.87;;
10343;SDS011;5217;43.960;10.954;2023-03-12T02:31:28;10.77;;;5.10;;
10343;SDS011;5217;43.960;10.954;2023-03-12T02:34:04;11.60;;;5.93;;
10343;SDS011;5217;43.960;10.954;2023-03-12T02:36:32;11.37;;;5.83;;
10343;SDS011;5217;43.960;10.954;2023-03-12T02:39:01;10.57;;;5.30;;
10343;SDS011;5217;43.960;10.954;2023-03-12T02:41:32;12.23;;;5.83;;
10343;SDS011;5217;43.960;10.954;2023-03-12T02:44:03;10.87;;;5.00;;
10343;SDS011;5217;43.960;10.954;2023-03-12T02:46:36;10.93;;;4.93;;
10343;SDS011;5217;43.960;10.954;2023-03-12T02:49:07;11.30;;;5.53;;
10343;SDS011;5217;43.960;10.954;2023-03-12T02:51:38;12.10;;;5.27;;
10343;SDS011;5217;43.960;10.954;2023-03-12T02:54:06;13.50;;;5.40;;
10343;SDS011;5217;43.960;10.954;2023-03-12T02:56:37;10.60;;;4.97;;
10343;SDS011;5217;43.960;10.954;2023-03-12T02:59:06;9.70;;;4.80;;
10343;SDS011;5217;43.960;10.954;2023-03-12T03:01:36;12.73;;;5.50;;
10343;SDS011;5217;43.960;10.954;2023-03-12T03:04:05;11.23;;;4.73;;
10343;SDS011;5217;43.960;10.954;2023-03-12T03:06:35;12.93;;;5.80;;
10343;SDS011;5217;43.960;10.954;2023-03-12T03:09:06;10.37;;;4.73;;
10343;SDS011;5217;43.960;10.954;2023-03-12T03:11:35;10.83;;;4.63;;
10343;SDS011;5217;43.960;10.954;2023-03-12T03:14:05;9.13;;;4.90;;
10343;SDS011;5217;43.960;10.954;2023-03-12T03:16:33;11.83;;;4.87;;
10343;SDS011;5217;43.960;10.954;2023-03-12T03:19:02;11.17;;;5.03;;
10343;SDS011;5217;43.960;10.954;2023-03-12T03:21:31;9.57;;;4.67;;
10343;SDS011;5217;43.960;10.954;2023-03-12T03:24:00;12.40;;;4.73;;
10343;SDS011;5217;43.960;10.954;2023-03-12T03:26:29;11.57;;;4.83;;
10343;SDS011;5217;43.960;10.954;2023-03-12T03:28:59;10.70;;;4.57;;
10343;SDS011;5217;43.960;10.954;2023-03-12T03:31:27;10.47;;;5.00;;
10343;SDS011;5217;43.960;10.954;2023-03-12T03:33:56;11.57;;;5.57;;
10343;SDS011;5217;43.960;10.954;2023-03-12T03:36:25;8.17;;;4.40;;
10343;SDS011;5217;43.960;10.954;2023-03-12T03:38:53;10.40;;;4.57;;
10343;SDS011;5217;43.960;10.954;2023-03-12T03:41:22;10.20;;;4.97;;
10343;SDS011;5217;43.960;10.954;2023-03-12T03:43:54;10.27;;;4.70;;
10343;SDS011;5217;43.960;10.954;2023-03-12T03:46:26;9.00;;;4.30;;
10343;SDS011;5217;43.960;10.954;2023-03-12T03:48:54;12.63;;;5.27;;
10343;SDS011;5217;43.960;10.954;2023-03-12T03:51:23;12.30;;;4.70;;
10343;SDS011;5217;43.960;10.954;2023-03-12T03:53:51;11.93;;;4.97;;
10343;SDS011;5217;43.960;10.954;2023-03-12T03:56:20;12.57;;;5.00;;
10343;SDS011;5217;43.960;10.954;2023-03-12T03:58:48;9.67;;;4.47;;
10343;SDS011;5217;43.960;10.954;2023-03-12T04:01:16;11.50;;;5.10;;
10343;SDS011;5217;43.960;10.954;2023-03-12T04:03:46;9.77;;;4.70;;
10343;SDS011;5217;43.960;10.954;2023-03-12T04:06:15;11.33;;;4.70;;
10343;SDS011;5217;43.960;10.954;2023-03-12T04:08:43;9.57;;;4.17;;
10343;SDS011;5217;43.960;10.954;2023-03-12T04:11:13;10.70;;;4.60;;
10343;SDS011;5217;43.960;10.954;2023-03-12T04:13:43;12.83;;;4.67;;
10343;SDS011;5217;43.960;10.954;2023-03-12T04:16:12;11.57;;;4.87;;
10343;SDS011;5217;43.960;10.954;2023-03-12T04:18:41;10.93;;;4.53;;
10343;SDS011;5217;43.960;10.954;2023-03-12T04:21:11;9.10;;;4.07;;
10343;SDS011;5217;43.960;10.954;2023-03-12T04:23:40;10.63;;;4.67;;
10343;SDS011;5217;43.960;10.954;2023-03-12T04:26:09;9.40;;;4.33;;
10343;SDS011;5217;43.960;10.954;2023-03-12T04:28:37;9.20;;;4.07;;
10343;SDS011;5217;43.960;10.954;2023-03-12T04:31:06;8.83;;;4.23;;
10343;SDS011;5217;43.960;10.954;2023-03-12T04:33:35;10.57;;;4.60;;
10343;SDS011;5217;43.960;10.954;2023-03-12T04:36:05;10.67;;;4.60;;
10343;SDS011;5217;43.960;10.954;2023-03-12T04:38:35;8.83;;;4.10;;
10343;SDS011;5217;43.960;10.954;2023-03-12T04:41:05;8.97;;;4.23;;
10343;SDS011;5217;43.960;10.954;2023-03-12T04:43:34;8.23;;;3.90;;
10343;SDS011;5217;43.960;10.954;2023-03-12T04:46:03;10.43;;;4.00;;
10343;SDS011;5217;43.960;10.954;2023-03-12T04:48:32;8.37;;;3.80;;
10343;SDS011;5217;43.960;10.954;2023-03-12T04:51:00;9.17;;;4.00;;
10343;SDS011;5217;43.960;10.954;2023-03-12T04:53:29;10.33;;;4.60;;
10343;SDS011;5217;43.960;10.954;2023-03-12T04:55:59;8.67;;;4.20;;
10343;SDS011;5217;43.960;10.954;2023-03-12T04:58:28;9.37;;;4.00;;
10343;SDS011;5217;43.960;10.954;2023-03-12T05:00:56;9.17;;;3.97;;
10343;SDS011;5217;43.960;10.954;2023-03-12T05:03:24;8.53;;;3.70;;
10343;SDS011;5217;43.960;10.954;2023-03-12T05:05:53;8.77;;;4.23;;
10343;SDS011;5217;43.960;10.954;2023-03-12T05:08:21;9.23;;;3.87;;
10343;SDS011;5217;43.960;10.954;2023-03-12T05:10:49;8.67;;;4.07;;
10343;SDS011;5217;43.960;10.954;2023-03-12T05:13:20;7.83;;;4.03;;
10343;SDS011;5217;43.960;10.954;2023-03-12T05:15:50;9.57;;;4.07;;
10343;SDS011;5217;43.960;10.954;2023-03-12T05:18:19;10.63;;;3.93;;
10343;SDS011;5217;43.960;10.954;2023-03-12T05:20:56;9.13;;;4.10;;
10343;SDS011;5217;43.960;10.954;2023-03-12T05:23:25;7.83;;;4.07;;
10343;SDS011;5217;43.960;10.954;2023-03-12T05:25:54;10.33;;;4.30;;
10343;SDS011;5217;43.960;10.954;2023-03-12T05:28:24;8.13;;;3.63;;
10343;SDS011;5217;43.960;10.954;2023-03-12T05:30:54;9.07;;;4.20;;
10343;SDS011;5217;43.960;10.954;2023-03-12T05:33:23;8.27;;;4.03;;
10343;SDS011;5217;43.960;10.954;2023-03-12T05:35:52;9.03;;;4.30;;
10343;SDS011;5217;43.960;10.954;2023-03-12T05:38:20;10.17;;;4.37;;
10343;SDS011;5217;43.960;10.954;2023-03-12T05:40:52;7.20;;;4.03;;
10343;SDS011;5217;43.960;10.954;2023-03-12T05:43:21;10.63;;;4.27;;
10343;SDS011;5217;43.960;10.954;2023-03-12T05:45:51;8.40;;;3.97;;
10343;SDS011;5217;43.960;10.954;2023-03-12T05:48:20;13.20;;;4.47;;
10343;SDS011;5217;43.960;10.954;2023-03-12T05:50:48;9.60;;;4.20;;
10343;SDS011;5217;43.960;10.954;2023-03-12T05:53:17;7.50;;;3.83;;
10343;SDS011;5217;43.960;10.954;2023-03-12T05:55:45;9.23;;;4.10;;
10343;SDS011;5217;43.960;10.954;2023-03-12T05:58:14;7.90;;;3.70;;
10343;SDS011;5217;43.960;10.954;2023-03-12T06:00:43;8.83;;;3.87;;
10343;SDS011;5217;43.960;10.954;2023-03-12T06:03:12;8.20;;;4.00;;
10343;SDS011;5217;43.960;10.954;2023-03-12T06:05:42;6.50;;;4.03;;
10343;SDS011;5217;43.960;10.954;2023-03-12T06:08:13;10.20;;;4.17;;
10343;SDS011;5217;43.960;10.954;2023-03-12T06:10:41;8.40;;;4.13;;
10343;SDS011;5217;43.960;10.954;2023-03-12T06:13:09;9.13;;;3.93;;
10343;SDS011;5217;43.960;10.954;2023-03-12T06:15:38;7.37;;;4.13;;
10343;SDS011;5217;43.960;10.954;2023-03-12T06:18:07;8.53;;;4.20;;
10343;SDS011;5217;43.960;10.954;2023-03-12T06:20:36;10.43;;;4.40;;
10343;SDS011;5217;43.960;10.954;2023-03-12T06:23:04;9.30;;;4.80;;
10343;SDS011;5217;43.960;10.954;2023-03-12T06:25:32;9.67;;;4.87;;
10343;SDS011;5217;43.960;10.954;2023-03-12T06:28:01;9.53;;;5.60;;
10343;SDS011;5217;43.960;10.954;2023-03-12T06:30:29;9.90;;;5.00;;
10343;SDS011;5217;43.960;10.954;2023-03-12T06:32:57;9.03;;;4.83;;
10343;SDS011;5217;43.960;10.954;2023-03-12T06:35:27;10.50;;;4.70;;
10343;SDS011;5217;43.960;10.954;2023-03-12T06:37:55;9.90;;;5.00;;
10343;SDS011;5217;43.960;10.954;2023-03-12T06:40:24;10.40;;;5.20;;
10343;SDS011;5217;43.960;10.954;2023-03-12T06:42:52;9.40;;;4.77;;
10343;SDS011;5217;43.960;10.954;2023-03-12T06:45:20;12.00;;;6.23;;
10343;SDS011;5217;43.960;10.954;2023-03-12T06:47:49;11.23;;;5.67;;
10343;SDS011;5217;43.960;10.954;2023-03-12T06:50:17;12.77;;;9.20;;
10343;SDS011;5217;43.960;10.954;2023-03-12T06:52:47;16.50;;;11.23;;
10343;SDS011;5217;43.960;10.954;2023-03-12T06:55:16;14.50;;;9.57;;
10343;SDS011;5217;43.960;10.954;2023-03-12T06:57:44;11.20;;;7.80;;
10343;SDS011;5217;43.960;10.954;2023-03-12T07:00:13;14.97;;;10.87;;
10343;SDS011;5217;43.960;10.954;2023-03-12T07:02:41;16.00;;;10.87;;
10343;SDS011;5217;43.960;10.954;2023-03-12T07:05:10;14.67;;;8.67;;
10343;SDS011;5217;43.960;10.954;2023-03-12T07:07:38;15.07;;;9.70;;
10343;SDS011;5217;43.960;10.954;2023-03-12T07:10:08;19.17;;;12.67;;
10343;SDS011;5217;43.960;10.954;2023-03-12T07:12:38;20.20;;;12.73;;
10343;SDS011;5217;43.960;10.954;2023-03-12T07:15:06;19.23;;;14.17;;
10343;SDS011;5217;43.960;10.954;2023-03-12T07:17:35;20.23;;;14.93;;
10343;SDS011;5217;43.960;10.954;2023-03-12T07:20:04;20.13;;;14.40;;
10343;SDS011;5217;43.960;10.954;2023-03-12T07:22:33;18.67;;;15.20;;
10343;SDS011;5217;43.960;10.954;2023-03-12T07:25:01;25.93;;;19.17;;
10343;SDS011;5217;43.960;10.954;2023-03-12T07:27:32;26.00;;;20.63;;
10343;SDS011;5217;43.960;10.954;2023-03-12T07:30:00;27.73;;;22.53;;
10343;SDS011;5217;43.960;10.954;2023-03-12T07:32:28;27.57;;;23.00;;
10343;SDS011;5217;43.960;10.954;2023-03-12T07:34:59;29.07;;;22.67;;
10343;SDS011;5217;43.960;10.954;2023-03-12T07:37:27;24.73;;;19.63;;
10343;SDS011;5217;43.960;10.954;2023-03-12T07:39:55;23.03;;;17.47;;
10343;SDS011;5217;43.960;10.954;2023-03-12T07:42:24;23.53;;;16.03;;
10343;SDS011;5217;43.960;10.954;2023-03-12T07:44:54;20.67;;;13.67;;
10343;SDS011;5217;43.960;10.954;2023-03-12T07:47:22;17.63;;;11.57;;
10343;SDS011;5217;43.960;10.954;2023-03-12T07:49:50;15.63;;;9.63;;
10343;SDS011;5217;43.960;10.954;2023-03-12T07:52:19;15.00;;;8.37;;
10343;SDS011;5217;43.960;10.954;2023-03-12T07:54:49;13.60;;;7.33;;
10343;SDS011;5217;43.960;10.954;2023-03-12T07:57:19;15.77;;;8.00;;
10343;SDS011;5217;43.960;10.954;2023-03-12T07:59:48;14.03;;;8.03;;
10343;SDS011;5217;43.960;10.954;2023-03-12T08:02:17;14.47;;;7.83;;
10343;SDS011;5217;43.960;10.954;2023-03-12T08:04:46;16.23;;;7.53;;
10343;SDS011;5217;43.960;10.954;2023-03-12T08:07:14;13.43;;;7.30;;
10343;SDS011;5217;43.960;10.954;2023-03-12T08:09:43;15.50;;;8.03;;
10343;SDS011;5217;43.960;10.954;2023-03-12T08:12:14;15.93;;;8.40;;
10343;SDS011;5217;43.960;10.954;2023-03-12T08:14:43;16.00;;;8.20;;
10343;SDS011;5217;43.960;10.954;2023-03-12T08:17:12;14.67;;;8.33;;
10343;SDS011;5217;43.960;10.954;2023-03-12T08:19:41;13.60;;;7.67;;
10343;SDS011;5217;43.960;10.954;2023-03-12T08:22:10;17.53;;;8.43;;
10343;SDS011;5217;43.960;10.954;2023-03-12T08:24:38;11.67;;;7.30;;
10343;SDS011;5217;43.960;10.954;2023-03-12T08:27:06;13.53;;;7.33;;
10343;SDS011;5217;43.960;10.954;2023-03-12T08:29:37;15.17;;;7.70;;
10343;SDS011;5217;43.960;10.954;2023-03-12T08:32:05;11.97;;;7.13;;
10343;SDS011;5217;43.960;10.954;2023-03-12T08:34:36;15.47;;;8.33;;
10343;SDS011;5217;43.960;10.954;2023-03-12T08:37:06;12.80;;;7.17;;
10343;SDS011;5217;43.960;10.954;2023-03-12T08:39:35;15.27;;;7.43;;
10343;SDS011;5217;43.960;10.954;2023-03-12T08:42:03;18.77;;;12.03;;
10343;SDS011;5217;43.960;10.954;2023-03-12T08:44:33;22.93;;;16.00;;
10343;SDS011;5217;43.960;10.954;2023-03-12T08:47:01;18.07;;;13.10;;
10343;SDS011;5217;43.960;10.954;2023-03-12T08:49:30;15.93;;;10.55;;
10343;SDS011;5217;43.960;10.954;2023-03-12T08:51:58;15.30;;;9.27;;
10343;SDS011;5217;43.960;10.954;2023-03-12T08:54:28;12.97;;;7.33;;
10343;SDS011;5217;43.960;10.954;2023-03-12T08:56:56;11.80;;;6.83;;
10343;SDS011;5217;43.960;10.954;2023-03-12T08:59:25;13.10;;;7.07;;
10343;SDS011;5217;43.960;10.954;2023-03-12T09:01:53;18.10;;;7.90;;
10343;SDS011;5217;43.960;10.954;2023-03-12T09:04:21;14.15;;;6.72;;
10343;SDS011;5217;43.960;10.954;2023-03-12T09:06:50;11.43;;;6.18;;
10343;SDS011;5217;43.960;10.954;2023-03-12T09:09:18;22.67;;;7.72;;
10343;SDS011;5217;43.960;10.954;2023-03-12T09:11:48;18.17;;;7.45;;
10343;SDS011;5217;43.960;10.954;2023-03-12T09:14:16;11.25;;;6.40;;
10343;SDS011;5217;43.960;10.954;2023-03-12T09:17:04;11.65;;;6.57;;
10343;SDS011;5217;43.960;10.954;2023-03-12T09:19:33;13.48;;;6.78;;
10343;SDS011;5217;43.960;10.954;2023-03-12T09:22:02;16.75;;;7.40;;
10343;SDS011;5217;43.960;10.954;2023-03-12T09:24:30;14.60;;;6.88;;
10343;SDS011;5217;43.960;10.954;2023-03-12T09:27:00;12.13;;;6.43;;
10343;SDS011;5217;43.960;10.954;2023-03-12T09:29:29;13.18;;;6.38;;
10343;SDS011;5217;43.960;10.954;2023-03-12T09:31:57;12.07;;;5.90;;
10343;SDS011;5217;43.960;10.954;2023-03-12T09:34:26;10.13;;;5.55;;
10343;SDS011;5217;43.960;10.954;2023-03-12T09:36:54;10.18;;;5.30;;
10343;SDS011;5217;43.960;10.954;2023-03-12T09:39:22;15.65;;;6.43;;
10343;SDS011;5217;43.960;10.954;2023-03-12T09:41:51;11.85;;;6.00;;
10343;SDS011;5217;43.960;10.954;2023-03-12T09:44:22;13.68;;;5.97;;
10343;SDS011;5217;43.960;10.954;2023-03-12T09:47:00;11.85;;;5.55;;
10343;SDS011;5217;43.960;10.954;2023-03-12T09:49:31;8.63;;;4.88;;
10343;SDS011;5217;43.960;10.954;2023-03-12T09:52:02;9.52;;;4.55;;
10343;SDS011;5217;43.960;10.954;2023-03-12T09:54:41;11.52;;;5.70;;
10343;SDS011;5217;43.960;10.954;2023-03-12T09:57:16;9.43;;;4.80;;
10343;SDS011;5217;43.960;10.954;2023-03-12T09:59:49;7.13;;;4.65;;
10343;SDS011;5217;43.960;10.954;2023-03-12T10:02:26;10.45;;;5.18;;
10343;SDS011;5217;43.960;10.954;2023-03-12T10:05:08;10.30;;;4.90;;
10343;SDS011;5217;43.960;10.954;2023-03-12T10:07:45;11.15;;;5.10;;
10343;SDS011;5217;43.960;10.954;2023-03-12T10:10:21;9.73;;;5.22;;
10343;SDS011;5217;43.960;10.954;2023-03-12T10:13:01;10.80;;;5.32;;
10343;SDS011;5217;43.960;10.954;2023-03-12T10:15:53;9.65;;;5.43;;
10343;SDS011;5217;43.960;10.954;2023-03-12T10:18:33;9.82;;;5.20;;
10343;SDS011;5217;43.960;10.954;2023-03-12T10:21:18;9.63;;;5.18;;
10343;SDS011;5217;43.960;10.954;2023-03-12T10:26:43;6.97;;;4.20;;
10343;SDS011;5217;43.960;10.954;2023-03-12T10:29:16;9.05;;;4.47;;
10343;SDS011;5217;43.960;10.954;2023-03-12T10:31:51;9.52;;;4.78;;
10343;SDS011;5217;43.960;10.954;2023-03-12T10:34:25;9.63;;;4.63;;
10343;SDS011;5217;43.960;10.954;2023-03-12T10:36:58;9.15;;;4.35;;
10343;SDS011;5217;43.960;10.954;2023-03-12T10:39:29;13.20;;;4.78;;
10343;SDS011;5217;43.960;10.954;2023-03-12T10:41:57;10.70;;;5.07;;
10343;SDS011;5217;43.960;10.954;2023-03-12T10:44:27;10.93;;;5.45;;
10343;SDS011;5217;43.960;10.954;2023-03-12T10:46:59;12.85;;;5.00;;
10343;SDS011;5217;43.960;10.954;2023-03-12T10:49:33;12.55;;;5.22;;
10343;SDS011;5217;43.960;10.954;2023-03-12T10:52:04;12.63;;;5.22;;
10343;SDS011;5217;43.960;10.954;2023-03-12T10:54:34;11.93;;;5.28;;
10343;SDS011;5217;43.960;10.954;2023-03-12T10:57:04;6.90;;;4.13;;
10343;SDS011;5217;43.960;10.954;2023-03-12T10:59:33;8.05;;;4.25;;
10343;SDS011;5217;43.960;10.954;2023-03-12T11:02:22;8.10;;;4.35;;
10343;SDS011;5217;43.960;10.954;2023-03-12T11:04:56;10.65;;;4.57;;
10343;SDS011;5217;43.960;10.954;2023-03-12T11:07:26;7.68;;;4.65;;
10343;SDS011;5217;43.960;10.954;2023-03-12T11:10:11;8.35;;;4.30;;
10343;SDS011;5217;43.960;10.954;2023-03-12T11:12:55;6.35;;;4.00;;
10343;SDS011;5217;43.960;10.954;2023-03-12T11:15:27;10.45;;;4.25;;
10343;SDS011;5217;43.960;10.954;2023-03-12T11:18:18;8.30;;;4.07;;
10343;SDS011;5217;43.960;10.954;2023-03-12T11:20:52;11.70;;;4.97;;
10343;SDS011;5217;43.960;10.954;2023-03-12T11:23:24;9.63;;;4.50;;
10343;SDS011;5217;43.960;10.954;2023-03-12T11:25:55;8.98;;;4.20;;
10343;SDS011;5217;43.960;10.954;2023-03-12T11:28:31;9.73;;;4.13;;
10343;SDS011;5217;43.960;10.954;2023-03-12T11:31:04;6.43;;;3.95;;
10343;SDS011;5217;43.960;10.954;2023-03-12T11:33:39;7.10;;;4.20;;
10343;SDS011;5217;43.960;10.954;2023-03-12T11:36:13;7.28;;;4.13;;
10343;SDS011;5217;43.960;10.954;2023-03-12T11:38:50;5.88;;;3.42;;
10343;SDS011;5217;43.960;10.954;2023-03-12T11:41:33;7.25;;;4.38;;
10343;SDS011;5217;43.960;10.954;2023-03-12T11:44:14;5.82;;;3.72;;
10343;SDS011;5217;43.960;10.954;2023-03-12T11:46:55;5.50;;;3.50;;
10343;SDS011;5217;43.960;10.954;2023-03-12T11:49:43;6.07;;;3.40;;
10343;SDS011;5217;43.960;10.954;2023-03-12T11:52:26;8.00;;;3.80;;
10343;SDS011;5217;43.960;10.954;2023-03-12T11:55:15;5.55;;;3.80;;
10343;SDS011;5217;43.960;10.954;2023-03-12T11:57:54;6.20;;;3.67;;
10343;SDS011;5217;43.960;10.954;2023-03-12T12:00:34;5.75;;;3.45;;
10343;SDS011;5217;43.960;10.954;2023-03-12T12:06:18;5.82;;;3.80;;
10343;SDS011;5217;43.960;10.954;2023-03-12T12:09:06;4.57;;;3.13;;
10343;SDS011;5217;43.960;10.954;2023-03-12T12:11:44;5.00;;;3.53;;
10343;SDS011;5217;43.960;10.954;2023-03-12T12:14:24;4.95;;;3.20;;
10343;SDS011;5217;43.960;10.954;2023-03-12T12:17:08;4.85;;;3.40;;
10343;SDS011;5217;43.960;10.954;2023-03-12T12:19:51;4.35;;;3.10;;
10343;SDS011;5217;43.960;10.954;2023-03-12T12:22:44;5.45;;;3.30;;
10343;SDS011;5217;43.960;10.954;2023-03-12T12:31:44;5.90;;;3.30;;
10343;SDS011;5217;43.960;10.954;2023-03-12T12:34:30;5.38;;;3.10;;
10343;SDS011;5217;43.960;10.954;2023-03-12T12:37:30;4.90;;;3.30;;
10343;SDS011;5217;43.960;10.954;2023-03-12T12:40:13;4.78;;;3.22;;
10343;SDS011;5217;43.960;10.954;2023-03-12T12:42:48;4.43;;;2.67;;
10343;SDS011;5217;43.960;10.954;2023-03-12T12:45:25;4.65;;;3.00;;
10343;SDS011;5217;43.960;10.954;2023-03-12T12:47:57;3.67;;;2.60;;
10343;SDS011;5217;43.960;10.954;2023-03-12T12:50:31;3.63;;;2.60;;
10343;SDS011;5217;43.960;10.954;2023-03-12T12:53:04;4.85;;;2.78;;
10343;SDS011;5217;43.960;10.954;2023-03-12T12:55:44;4.47;;;2.97;;
10343;SDS011;5217;43.960;10.954;2023-03-12T12:58:18;4.20;;;2.78;;
10343;SDS011;5217;43.960;10.954;2023-03-12T13:00:50;3.95;;;2.55;;
10343;SDS011;5217;43.960;10.954;2023-03-12T13:03:22;6.03;;;3.28;;
10343;SDS011;5217;43.960;10.954;2023-03-12T13:05:53;5.45;;;3.10;;
10343;SDS011;5217;43.960;10.954;2023-03-12T13:08:33;4.60;;;2.90;;
10343;SDS011;5217;43.960;10.954;2023-03-12T13:11:25;5.75;;;2.95;;
10343;SDS011;5217;43.960;10.954;2023-03-12T13:14:17;5.25;;;3.17;;
10343;SDS011;5217;43.960;10.954;2023-03-12T13:16:48;6.55;;;3.65;;
10343;SDS011;5217;43.960;10.954;2023-03-12T13:19:23;4.72;;;3.20;;
10343;SDS011;5217;43.960;10.954;2023-03-12T13:21:59;5.28;;;3.30;;
10343;SDS011;5217;43.960;10.954;2023-03-12T13:24:38;5.18;;;2.92;;
10343;SDS011;5217;43.960;10.954;2023-03-12T13:27:16;3.97;;;2.78;;
10343;SDS011;5217;43.960;10.954;2023-03-12T13:29:49;4.00;;;2.80;;
10343;SDS011;5217;43.960;10.954;2023-03-12T13:32:35;3.78;;;2.80;;
10343;SDS011;5217;43.960;10.954;2023-03-12T13:35:31;3.45;;;2.90;;
10343;SDS011;5217;43.960;10.954;2023-03-12T13:38:03;4.55;;;2.88;;
10343;SDS011;5217;43.960;10.954;2023-03-12T13:49:13;6.53;;;4.20;;
10343;SDS011;5217;43.960;10.954;2023-03-12T13:51:44;5.18;;;3.88;;
10343;SDS011;5217;43.960;10.954;2023-03-12T13:54:26;7.22;;;4.40;;
10343;SDS011;5217;43.960;10.954;2023-03-12T13:56:58;8.85;;;4.43;;
10343;SDS011;5217;43.960;10.954;2023-03-12T13:59:31;5.07;;;3.78;;
10343;SDS011;5217;43.960;10.954;2023-03-12T14:02:01;6.25;;;4.10;;
10343;SDS011;5217;43.960;10.954;2023-03-12T14:04:41;6.38;;;3.97;;
10343;SDS011;5217;43.960;10.954;2023-03-12T14:10:18;4.85;;;3.88;;
10343;SDS011;5217;43.960;10.954;2023-03-12T14:12:59;6.03;;;3.85;;
10343;SDS011;5217;43.960;10.954;2023-03-12T14:15:45;5.85;;;4.07;;
10343;SDS011;5217;43.960;10.954;2023-03-12T14:18:20;5.43;;;4.10;;
10343;SDS011;5217;43.960;10.954;2023-03-12T14:20:52;5.28;;;4.05;;
10343;SDS011;5217;43.960;10.954;2023-03-12T14:23:23;5.60;;;3.92;;
10343;SDS011;5217;43.960;10.954;2023-03-12T14:25:55;6.47;;;3.53;;
10343;SDS011;5217;43.960;10.954;2023-03-12T14:28:29;6.07;;;4.00;;
10343;SDS011;5217;43.960;10.954;2023-03-12T14:31:06;5.22;;;3.95;;
10343;SDS011;5217;43.960;10.954;2023-03-12T14:33:44;6.97;;;4.18;;
10343;SDS011;5217;43.960;10.954;2023-03-12T14:36:18;6.88;;;4.32;;
10343;SDS011;5217;43.960;10.954;2023-03-12T14:38:47;5.95;;;4.45;;
10343;SDS011;5217;43.960;10.954;2023-03-12T14:41:17;5.07;;;3.67;;
10343;SDS011;5217;43.960;10.954;2023-03-12T14:43:50;4.90;;;3.50;;
10343;SDS011;5217;43.960;10.954;2023-03-12T14:46:21;7.00;;;4.10;;
10343;SDS011;5217;43.960;10.954;2023-03-12T14:48:51;6.03;;;4.38;;
10343;SDS011;5217;43.960;10.954;2023-03-12T14:51:21;7.03;;;4.43;;
10343;SDS011;5217;43.960;10.954;2023-03-12T14:53:50;9.00;;;4.80;;
10343;SDS011;5217;43.960;10.954;2023-03-12T14:56:21;17.48;;;5.00;;
10343;SDS011;5217;43.960;10.954;2023-03-12T14:58:55;22.55;;;4.75;;
10343;SDS011;5217;43.960;10.954;2023-03-12T15:01:26;11.90;;;4.75;;
10343;SDS011;5217;43.960;10.954;2023-03-12T15:03:57;10.32;;;4.38;;
10343;SDS011;5217;43.960;10.954;2023-03-12T15:06:28;7.45;;;4.00;;
10343;SDS011;5217;43.960;10.954;2023-03-12T15:08:58;6.72;;;4.13;;
10343;SDS011;5217;43.960;10.954;2023-03-12T15:11:30;7.75;;;3.88;;
10343;SDS011;5217;43.960;10.954;2023-03-12T15:14:00;5.05;;;3.83;;
10343;SDS011;5217;43.960;10.954;2023-03-12T15:16:32;4.70;;;3.13;;
10343;SDS011;5217;43.960;10.954;2023-03-12T15:19:01;5.10;;;3.22;;
10343;SDS011;5217;43.960;10.954;2023-03-12T15:21:30;5.47;;;3.28;;
10343;SDS011;5217;43.960;10.954;2023-03-12T15:23:59;4.55;;;3.28;;
10343;SDS011;5217;43.960;10.954;2023-03-12T15:26:30;6.13;;;3.17;;
10343;SDS011;5217;43.960;10.954;2023-03-12T15:29:00;6.10;;;3.30;;